Latest Weather Observations for Nuriootpa

IDS60801

Issued at 11:01 am CST Saturday 4 July 2015 (issued every 30 minutes, with the page automatically refreshed every 10 minutes)

About weather observations | Map of weather stations | Latest weather observations for SA | Other Formats
Station Details ID: 023373 Name: NURIOOTPA VITICULTURAL Lat: -34.48 Lon: 139.01 Height: 275.0 m
Data from the previous 72 hours. | See also: Recent months at Nuriootpa
Date/Time
CST
Temp
°C
App
Temp
°C
Dew
Point
Rel
Hum
%
Delta-T
°C
Wind Press
QNH
hPa
Press
MSL
hPa
Rain
since 9 am
mm
Dir
 
Spd
km/h
Gust
km/h
Spd
kts
Gust
kts
04/11:00am 11.5 10.1 5.3 65 2.9 W 2 6 1 3 1024.3 1024.7 0.0
04/10:30am 10.4 8.3 5.7 72 2.2 NE 6 7 3 4 1024.5 1024.9 0.0
04/10:00am 7.6 5.2 5.1 84 1.1 NNE 7 11 4 6 1024.8 1025.2 0.0
04/09:30am 6.4 5.0 5.3 93 0.5 NE 2 6 1 3 1024.8 1025.2 0.0
04/09:00am 4.7 3.4 4.2 97 0.2 CALM 0 4 0 2 1024.8 1025.2 0.0
04/08:30am 3.6 1.0 3.1 97 0.2 NE 6 7 3 4 1024.7 1025.1 0.0
04/08:00am 2.6 0.2 2.1 96 0.2 NE 4 7 2 4 1024.5 1024.9 0.0
04/07:30am 1.5 -1.1 1.0 96 0.2 NE 4 7 2 4 1024.3 1024.7 0.0
04/07:00am 0.6 -2.5 0.3 98 0.1 ENE 6 6 3 3 1024.2 1024.6 0.0
04/06:30am -0.2 - - - - ENE 6 7 3 4 1024.1 1024.5 0.0
04/06:00am -0.2 - - - - NE 6 7 3 4 1024.0 1024.4 0.0
04/05:30am 0.0 - - - - NE 6 9 3 5 1023.7 1024.1 0.0
04/05:00am -0.3 - - - - CALM 0 0 0 0 1023.6 1024.0 0.0
04/04:30am 0.1 - - - - NE 4 7 2 4 1023.7 1024.1 0.0
04/04:00am 0.5 -2.8 0.2 98 0.1 ENE 7 7 4 4 1023.7 1024.1 0.0
04/03:30am 0.6 -1.7 0.1 96 0.2 NE 2 6 1 3 1024.0 1024.4 0.0
04/03:00am 0.6 -2.5 0.1 96 0.2 ENE 6 7 3 4 1024.0 1024.4 0.0
04/02:30am 0.9 -2.3 0.9 100 0.0 ENE 7 7 4 4 1024.1 1024.5 0.0
04/02:00am 0.8 -2.4 0.5 98 0.1 ENE 7 9 4 5 1024.2 1024.6 0.0
04/01:30am 1.1 -1.9 0.8 98 0.1 E 6 7 3 4 1024.3 1024.7 0.0
04/01:00am 1.2 -1.8 0.9 98 0.1 NE 6 7 3 4 1024.4 1024.8 0.0
04/12:30am 2.0 -1.0 1.7 98 0.1 ENE 7 7 4 4 1024.6 1025.0 0.0
04/12:00am 2.6 -0.4 1.8 94 0.3 ENE 7 7 4 4 1025.1 1025.6 0.0
 
Date/Time
CST
Temp
°C
App
Temp
°C
Dew
Point
Rel
Hum
%
Delta-T
°C
Wind Press
QNH
hPa
Press
MSL
hPa
Rain
since 9 am
mm
Dir
 
Spd
km/h
Gust
km/h
Spd
kts
Gust
kts
03/11:30pm 3.1 0.4 2.4 95 0.3 ENE 6 7 3 4 1025.2 1025.7 0.0
03/11:00pm 4.2 1.4 3.2 93 0.4 NE 7 7 4 4 1025.3 1025.8 0.0
03/10:30pm 5.0 2.5 3.8 92 0.5 NE 6 7 3 4 1025.4 1025.9 0.0
03/10:00pm 5.1 2.6 3.9 92 0.5 ENE 6 7 3 4 1025.7 1026.1 0.0
03/09:30pm 5.4 3.0 4.2 92 0.5 NE 6 7 3 4 1025.9 1026.3 0.0
03/09:00pm 5.6 4.3 4.2 91 0.6 CALM 0 0 0 0 1026.0 1026.4 0.0
03/08:30pm 6.3 5.1 4.5 88 0.8 CALM 0 0 0 0 1025.9 1026.3 0.0
03/08:00pm 6.4 4.8 4.6 88 0.8 SE 2 7 1 4 1025.9 1026.3 0.0
03/07:30pm 7.5 5.5 4.6 82 1.3 WSW 4 7 2 4 1026.0 1026.4 0.0
03/07:00pm 8.0 5.8 5.1 82 1.3 SW 6 7 3 4 1025.9 1026.3 0.0
03/06:30pm 8.8 5.9 4.5 74 1.9 WSW 9 13 5 7 1025.8 1026.2 0.0
03/06:00pm 9.3 6.0 4.6 72 2.1 W 11 15 6 8 1025.7 1026.1 0.0
03/05:30pm 9.8 6.1 4.7 70 2.3 W 13 19 7 10 1025.8 1026.2 0.0
03/05:00pm 10.3 5.4 4.0 65 2.8 W 19 26 10 14 1025.8 1026.2 0.0
03/04:30pm 10.7 5.8 4.3 64 2.9 W 19 26 10 14 1025.8 1026.2 0.0
03/04:00pm 11.3 6.5 4.5 63 3.1 WNW 19 24 10 13 1025.9 1026.3 0.0
03/03:30pm 11.1 6.2 4.2 62 3.1 W 19 24 10 13 1025.9 1026.3 0.0
03/03:00pm 11.2 6.3 4.1 61 3.2 WNW 19 26 10 14 1026.0 1026.4 0.0
03/02:30pm 11.2 7.4 3.8 60 3.3 WNW 13 22 7 12 1025.9 1026.3 0.0
03/02:00pm 11.1 7.4 4.2 62 3.1 NW 13 20 7 11 1026.2 1026.6 0.0
03/01:30pm 11.3 7.0 3.4 58 3.5 NNW 15 22 8 12 1026.6 1027.0 0.0
03/01:00pm 10.6 6.7 3.6 62 3.1 N 13 20 7 11 1026.9 1027.3 0.0
03/12:30pm 10.7 6.4 3.2 60 3.3 N 15 24 8 13 1027.3 1027.7 0.0
03/12:00pm 10.6 6.6 2.8 58 3.4 NNW 13 19 7 10 1027.8 1028.2 0.0
03/11:30am 11.1 7.9 2.9 57 3.6 N 9 20 5 11 1028.3 1028.8 0.0
03/11:00am 11.4 7.9 3.6 58 3.5 ENE 11 20 6 11 1028.5 1029.0 0.0
03/10:30am 9.7 5.7 3.0 63 2.9 NE 13 17 7 9 1028.6 1029.1 0.0
03/10:00am 9.7 6.4 2.5 61 3.1 NE 9 13 5 7 1028.9 1029.4 0.0
03/09:30am 8.9 5.4 3.6 69 2.3 ENE 11 15 6 8 1029.1 1029.6 0.0
03/09:00am 7.0 3.8 3.0 76 1.7 ENE 9 13 5 7 1029.1 1029.6 0.2
03/08:30am 5.6 3.8 3.7 87 0.8 NW 2 6 1 3 1029.7 1030.1 0.2
03/08:00am 4.3 1.6 2.6 89 0.7 NNE 6 7 3 4 1029.2 1029.7 0.2
03/07:30am 3.4 1.7 2.1 91 0.5 CALM 0 0 0 0 1028.8 1029.3 0.2
03/07:00am 3.9 2.3 2.4 90 0.6 CALM 0 0 0 0 1028.6 1029.1 0.2
03/06:30am 4.6 1.9 2.6 87 0.8 ESE 6 7 3 4 1028.4 1028.9 0.2
03/06:00am 5.6 3.0 3.2 84 1.0 ESE 6 9 3 5 1028.2 1028.7 0.2
03/05:30am 5.7 3.2 3.6 86 0.9 E 6 7 3 4 1028.3 1028.8 0.2
03/05:00am 5.1 3.7 3.7 91 0.6 CALM 0 0 0 0 1028.8 1029.3 0.2
03/04:30am 5.0 3.6 3.6 91 0.6 CALM 0 0 0 0 1028.7 1029.2 0.2
03/04:00am 4.7 3.3 3.5 92 0.5 CALM 0 4 0 2 1028.8 1029.3 0.2
03/03:30am 4.8 2.2 3.1 89 0.7 E 6 9 3 5 1028.9 1029.4 0.2
03/03:00am 4.0 1.4 3.0 93 0.4 E 6 9 3 5 1029.1 1029.6 0.2
03/02:30am 3.8 1.9 2.6 92 0.5 N 2 7 1 4 1029.1 1029.6 0.2
03/02:00am 3.8 0.8 2.3 90 0.6 NE 7 9 4 5 1029.2 1029.7 0.2
03/01:30am 3.3 0.3 2.3 93 0.4 NNE 7 9 4 5 1029.6 1030.0 0.2
03/01:00am 2.7 -0.2 1.7 93 0.4 N 6 9 3 5 1029.7 1030.1 0.2
03/12:30am 3.7 0.7 2.2 90 0.6 NE 7 11 4 6 1029.9 1030.3 0.2
03/12:00am 4.7 1.9 2.2 84 1.0 NE 6 11 3 6 1029.9 1030.3 0.2
 
Date/Time
CST
Temp
°C
App
Temp
°C
Dew
Point
Rel
Hum
%
Delta-T
°C
Wind Press
QNH
hPa
Press
MSL
hPa
Rain
since 9 am
mm
Dir
 
Spd
km/h
Gust
km/h
Spd
kts
Gust
kts
02/11:30pm 5.2 2.5 2.5 83 1.1 NE 6 11 3 6 1030.1 1030.5 0.2
02/11:00pm 5.1 2.1 2.1 81 1.2 ENE 7 9 4 5 1030.1 1030.5 0.2
02/10:30pm 5.2 2.9 2.8 84 1.0 E 4 7 2 4 1030.3 1030.7 0.2
02/10:00pm 4.9 3.4 3.0 87 0.8 CALM 0 0 0 0 1030.3 1030.7 0.2
02/09:30pm 6.2 3.6 3.1 80 1.3 ESE 6 15 3 8 1030.3 1030.7 0.2
02/09:00pm 5.0 3.2 3.3 89 0.7 E 2 7 1 4 1030.2 1030.6 0.2
02/08:30pm 5.3 2.8 3.6 89 0.7 E 6 9 3 5 1030.1 1030.5 0.2
02/08:00pm 4.9 1.7 3.2 89 0.7 ESE 9 13 5 7 1030.0 1030.4 0.2
02/07:30pm 5.7 3.2 3.8 87 0.8 ESE 6 9 3 5 1029.9 1030.3 0.2
02/07:00pm 7.2 5.3 4.7 84 1.1 ESE 4 7 2 4 1029.7 1030.1 0.2
02/06:30pm 8.2 6.7 5.1 81 1.4 ENE 2 7 1 4 1029.6 1030.0 0.2
02/06:00pm 8.7 6.5 5.4 80 1.5 W 6 9 3 5 1029.2 1029.7 0.2
02/05:30pm 9.5 7.2 5.8 78 1.7 SE 7 9 4 5 1029.0 1029.5 0.2
02/05:00pm 11.5 8.1 3.9 59 3.4 SW 11 13 6 7 1028.6 1029.1 0.2
02/04:30pm 12.8 9.0 3.8 54 4.1 SW 13 17 7 9 1028.4 1028.9 0.2
02/04:00pm 13.4 9.3 4.3 54 4.2 SW 15 20 8 11 1028.3 1028.8 0.2
02/03:30pm 13.0 8.6 4.8 57 3.8 SW 17 28 9 15 1028.3 1028.8 0.2
02/03:00pm 14.2 9.6 6.6 60 3.7 SW 20 32 11 17 1028.3 1028.8 0.2
02/02:30pm 14.0 9.9 7.8 66 3.1 W 19 24 10 13 1028.5 1029.0 0.2
02/02:00pm 13.5 10.3 8.3 71 2.6 WSW 15 24 8 13 1028.5 1029.0 0.2
02/01:30pm 12.8 9.5 8.2 73 2.3 SW 15 20 8 11 1028.6 1029.1 0.2
02/01:00pm 12.7 9.6 8.7 76 2.0 WSW 15 22 8 12 1028.8 1029.3 0.2
02/12:30pm 12.1 9.8 9.1 82 1.5 W 11 17 6 9 1028.9 1029.4 0.2
02/12:00pm 11.6 9.4 9.2 85 1.2 WSW 11 15 6 8 1029.0 1029.5 0.2
02/11:30am 10.9 8.6 9.1 89 0.9 W 11 17 6 9 1029.6 1030.0 0.2
02/11:00am 10.2 7.8 8.8 91 0.7 W 11 17 6 9 1029.8 1030.2 0.2
02/10:30am 9.5 7.1 8.5 93 0.5 SSW 11 15 6 8 1029.6 1030.0 0.2
02/10:00am 8.9 6.4 8.1 95 0.4 SSW 11 17 6 9 1029.3 1029.8 0.2
02/09:30am 9.0 6.8 7.8 92 0.6 S 9 11 5 6 1028.7 1029.2 0.0
02/09:00am 8.9 6.3 7.6 91 0.6 SSW 11 13 6 7 1028.7 1029.2 0.0
02/08:30am 8.8 6.5 7.3 90 0.7 W 9 13 5 7 1028.4 1028.9 0.0
02/08:00am 8.3 6.5 7.0 91 0.6 SSW 6 7 3 4 1028.5 1029.0 0.0
02/07:30am 8.1 6.0 6.8 91 0.6 SSW 7 9 4 5 1028.3 1028.8 0.0
02/07:00am 8.0 5.1 6.7 91 0.6 S 11 15 6 8 1027.6 1028.0 0.0
02/06:30am 8.1 5.3 6.8 91 0.6 SSW 11 15 6 8 1027.5 1027.9 0.0
02/06:00am 7.7 5.6 6.6 93 0.5 S 7 11 4 6 1027.4 1027.8 0.0
02/05:30am 7.4 4.8 6.1 91 0.6 SSW 9 11 5 6 1027.3 1027.7 0.0
02/05:00am 7.2 6.3 5.9 91 0.6 CALM 0 0 0 0 1027.3 1027.7 0.0
02/04:30am 7.2 5.8 5.6 89 0.7 SE 2 7 1 4 1027.4 1027.8 0.0
02/04:00am 7.1 5.3 5.3 88 0.8 SSE 4 9 2 5 1027.1 1027.5 0.0
02/03:30am 6.8 5.3 5.0 88 0.8 SSW 2 6 1 3 1027.4 1027.8 0.0
02/03:00am 7.1 4.2 4.8 85 1.0 SW 9 11 5 6 1027.2 1027.6 0.0
02/02:30am 7.5 4.7 5.0 84 1.1 WSW 9 11 5 6 1027.4 1027.8 0.0
02/02:00am 5.3 2.8 4.6 95 0.3 S 7 13 4 7 1027.4 1027.8 0.0
02/01:30am 4.6 2.1 3.6 93 0.4 SSW 6 9 3 5 1027.5 1027.9 0.0
02/01:00am 5.4 3.0 4.2 92 0.5 WSW 6 7 3 4 1027.5 1027.9 0.0
02/12:30am 6.7 4.5 5.1 89 0.7 NW 6 7 3 4 1027.7 1028.1 0.0
02/12:00am 7.2 4.5 5.4 88 0.8 WNW 9 11 5 6 1028.1 1028.6 0.0
 
Date/Time
CST
Temp
°C
App
Temp
°C
Dew
Point
Rel
Hum
%
Delta-T
°C
Wind Press
QNH
hPa
Press
MSL
hPa
Rain
since 9 am
mm
Dir
 
Spd
km/h
Gust
km/h
Spd
kts
Gust
kts
01/11:30pm 7.2 5.0 5.2 87 0.9 WSW 6 7 3 4 1028.5 1029.0 0.0
01/11:00pm 7.5 5.2 5.5 87 0.9 W 7 11 4 6 1028.5 1029.0 0.0
01/10:30pm 7.1 4.3 5.1 87 0.9 WSW 9 15 5 8 1028.4 1028.9 0.0
01/10:00pm 7.2 5.7 4.9 85 1.0 NW 2 7 1 4 1028.0 1028.5 0.0
01/09:30pm 7.3 5.0 4.6 83 1.2 NW 6 7 3 4 1028.0 1028.5 0.0
01/09:00pm 7.4 4.8 4.4 81 1.3 NW 7 13 4 7 1028.1 1028.6 0.0
01/08:30pm 7.4 4.4 3.9 78 1.5 WNW 9 13 5 7 1028.1 1028.6 0.0
01/08:00pm 7.5 4.4 3.6 76 1.7 W 9 13 5 7 1028.0 1028.5 0.0
01/07:30pm 7.7 4.5 3.3 74 1.9 W 9 13 5 7 1028.0 1028.5 0.0
01/07:00pm 8.2 4.1 2.5 67 2.4 W 13 17 7 9 1027.7 1028.1 0.0
01/06:30pm 8.6 4.9 2.2 64 2.7 W 11 15 6 8 1027.5 1027.9 0.0
01/06:00pm 9.0 4.8 1.9 61 3.0 W 13 15 7 8 1027.1 1027.5 0.0
01/05:30pm 9.2 5.9 2.4 62 2.9 WNW 9 13 5 7 1027.0 1027.4 0.0
01/05:00pm 9.8 5.3 2.0 58 3.3 W 15 20 8 11 1027.1 1027.5 0.0
01/04:30pm 10.4 6.3 2.2 57 3.5 W 13 19 7 10 1027.1 1027.5 0.0
01/04:00pm 11.0 6.5 2.2 54 3.8 W 15 20 8 11 1027.0 1027.4 0.0
01/03:30pm 11.8 7.3 2.4 52 4.1 WNW 15 20 8 11 1026.9 1027.3 0.0
01/03:00pm 11.8 7.5 1.2 48 4.5 SW 13 17 7 9 1026.9 1027.3 0.0
01/02:30pm 12.2 8.7 1.2 47 4.7 SW 9 13 5 7 1026.8 1027.2 0.0
01/02:00pm 12.3 7.5 0.0 43 5.1 WSW 15 20 8 11 1027.3 1027.7 0.0
01/01:30pm 12.4 8.4 0.8 45 4.9 WNW 11 20 6 11 1027.8 1028.2 0.0
01/01:00pm 12.1 8.6 1.0 46 4.7 W 9 13 5 7 1028.2 1028.7 0.0
01/12:30pm 11.4 7.8 0.9 48 4.4 W 9 15 5 8 1028.7 1029.2 0.0
01/12:00pm 12.0 8.0 0.5 45 4.8 W 11 17 6 9 1029.3 1029.8 0.0
01/11:30am 11.5 7.4 -0.2 44 4.8 WNW 11 17 6 9 1029.9 1030.3 0.0

Other Formats:

Comma delimited format used in spreadsheet applications
http://www.bom.gov.au/fwo/IDS60801/IDS60801.94681.axf

JavaScript Object Notation format (JSON) in row-major order
http://www.bom.gov.au/fwo/IDS60801/IDS60801.94681.json